Beaver Creek, MN (56116)

9:51 PM CDT on August 23, 2016 (GMT -0500)
MNDOT | | Change Station

Elev 1450 ft 43.61 °N, 96.38 °W | Updated 1 hour ago

Overcast
Overcast
72.0 °F
Feels Like 67 °F
N
2.0
Wind Variable Wind from SE
Gusts 4.0 mph

Today
High -- | Low -- °F
--% Chance of Precip.
Yesterday
High -- | Low -- °F
Precip. -- in
Pressure 29.82 in
Visibility 7.0 miles
Clouds Mostly Cloudy 700 ft
Mostly Cloudy 5500 ft
Overcast 7000 ft
Heat Index 67 °F
Dew Point 72.0 °F
Humidity 97%
Rainfall in
Snow Depth Not available.
6:39 AM 8:15 PM
Waning Gibbous, 62% visible
METAR KLYV 240236Z AUTO 13003KT 7SM BKN007 BKN055 OVC070 21/19 A2982 RMK AO2 LTG DSNT E AND SE
Pressure 29.82 in
Visibility 7.0 miles
Clouds Mostly Cloudy 700 ft
Mostly Cloudy 5500 ft
Overcast 7000 ft
Heat Index 67 °F
Dew Point 72.0 °F
Humidity 97%
Rainfall in
Snow Depth Not available.
6:39 AM 8:15 PM
Waning Gibbous, 62% visible
METAR KLYV 240236Z AUTO 13003KT 7SM BKN007 BKN055 OVC070 21/19 A2982 RMK AO2 LTG DSNT E AND SE

10-Day Weather Forecast

Almanac

Astronomy

Aug. 23, 2016 Rise Set
Actual Time
Civil Twilight
Nautical Twilight
Astronomical Twilight
Moon
Length of Visible Light
Length of Day
Tomorrow will be .
, % of the Moon is Illuminated

Today's Extremes

State Highs State Lows

Community

WunderPhotos

Upload Photos

1,934,533 photos uploaded!

WunderBlog® & News

Nearby

Air Quality

  Air Quality AQ Index Pollutant
Not available.

Snow Depth

Station Depth Elevation

Earthquake Activity

City Distance Mag. Time & Date
Minimum magnitude displayed is 2.5.

Coastal Water Temperatures

Place Temperature

Stations

Nearby Weather Stations

Station Location Temp. Windchill Dew Point Humidity Wind Precip. Elev Updated Type
                   

Watches & Warnings

There are currently no watches in effect.